sensor_id;sensor_type;location;lat;lon;timestamp;pressure;altitude;pressure_sealevel;temperature;humidity
9822;BME280;4950;46.042;14.472;2023-12-20T00:01:35;98062.69;;;-0.41;100.00
9822;BME280;4950;46.042;14.472;2023-12-20T00:04:03;98060.66;;;-0.49;100.00
9822;BME280;4950;46.042;14.472;2023-12-20T00:06:30;98062.47;;;-0.64;100.00
9822;BME280;4950;46.042;14.472;2023-12-20T00:08:57;98059.19;;;-0.53;100.00
9822;BME280;4950;46.042;14.472;2023-12-20T00:11:24;98051.78;;;-0.30;100.00
9822;BME280;4950;46.042;14.472;2023-12-20T00:13:50;98040.06;;;-0.20;100.00
9822;BME280;4950;46.042;14.472;2023-12-20T00:16:17;98043.13;;;-0.15;100.00
9822;BME280;4950;46.042;14.472;2023-12-20T00:18:44;98033.44;;;-0.10;100.00
9822;BME280;4950;46.042;14.472;2023-12-20T00:21:12;98033.13;;;-0.18;100.00
9822;BME280;4950;46.042;14.472;2023-12-20T00:23:39;98027.31;;;-0.33;100.00
9822;BME280;4950;46.042;14.472;2023-12-20T00:26:06;98024.97;;;-0.49;100.00
9822;BME280;4950;46.042;14.472;2023-12-20T00:28:32;98024.03;;;-0.48;100.00
9822;BME280;4950;46.042;14.472;2023-12-20T00:30:59;98020.47;;;-0.58;100.00
9822;BME280;4950;46.042;14.472;2023-12-20T00:33:26;98017.31;;;-0.49;100.00
9822;BME280;4950;46.042;14.472;2023-12-20T00:35:52;98011.69;;;-0.41;100.00
9822;BME280;4950;46.042;14.472;2023-12-20T00:38:20;98011.88;;;-0.31;100.00
9822;BME280;4950;46.042;14.472;2023-12-20T00:40:48;98008.34;;;-0.29;100.00
9822;BME280;4950;46.042;14.472;2023-12-20T00:43:15;98005.19;;;-0.32;100.00
9822;BME280;4950;46.042;14.472;2023-12-20T00:45:42;98006.69;;;-0.30;100.00
9822;BME280;4950;46.042;14.472;2023-12-20T00:48:08;98001.50;;;-0.28;100.00
9822;BME280;4950;46.042;14.472;2023-12-20T00:50:35;97993.13;;;-0.17;100.00
9822;BME280;4950;46.042;14.472;2023-12-20T00:53:02;97987.28;;;-0.07;100.00
9822;BME280;4950;46.042;14.472;2023-12-20T00:55:30;97989.66;;;-0.04;99.87
9822;BME280;4950;46.042;14.472;2023-12-20T00:57:56;97989.66;;;-0.04;99.57
9822;BME280;4950;46.042;14.472;2023-12-20T01:00:24;97986.66;;;0.03;99.97
9822;BME280;4950;46.042;14.472;2023-12-20T01:02:51;97981.56;;;-0.10;98.13
9822;BME280;4950;46.042;14.472;2023-12-20T01:05:18;97973.41;;;-0.03;98.74
9822;BME280;4950;46.042;14.472;2023-12-20T01:07:48;97975.84;;;-0.01;98.59
9822;BME280;4950;46.042;14.472;2023-12-20T01:10:15;97981.25;;;0.07;98.95
9822;BME280;4950;46.042;14.472;2023-12-20T01:12:44;97979.72;;;0.05;99.18
9822;BME280;4950;46.042;14.472;2023-12-20T01:15:11;97976.19;;;-0.06;98.59
9822;BME280;4950;46.042;14.472;2023-12-20T01:17:38;97965.56;;;0.01;99.46
9822;BME280;4950;46.042;14.472;2023-12-20T01:20:06;97966.97;;;0.05;98.59
9822;BME280;4950;46.042;14.472;2023-12-20T01:22:33;97970.22;;;0.07;99.63
9822;BME280;4950;46.042;14.472;2023-12-20T01:25:01;97959.78;;;0.10;98.72
9822;BME280;4950;46.042;14.472;2023-12-20T01:27:28;97950.44;;;-0.03;98.64
9822;BME280;4950;46.042;14.472;2023-12-20T01:29:57;97953.28;;;0.06;99.15
9822;BME280;4950;46.042;14.472;2023-12-20T01:32:24;97949.44;;;0.00;99.48
9822;BME280;4950;46.042;14.472;2023-12-20T01:34:51;97952.03;;;0.11;100.00
9822;BME280;4950;46.042;14.472;2023-12-20T01:37:17;97932.94;;;0.17;98.82
9822;BME280;4950;46.042;14.472;2023-12-20T01:39:44;97932.81;;;0.18;98.35
9822;BME280;4950;46.042;14.472;2023-12-20T01:42:11;97927.94;;;0.15;98.67
9822;BME280;4950;46.042;14.472;2023-12-20T01:44:38;97932.31;;;0.13;97.75
9822;BME280;4950;46.042;14.472;2023-12-20T01:47:06;97930.72;;;0.12;98.77
9822;BME280;4950;46.042;14.472;2023-12-20T01:49:33;97930.03;;;-0.03;98.55
9822;BME280;4950;46.042;14.472;2023-12-20T01:51:59;97912.78;;;0.01;99.60
9822;BME280;4950;46.042;14.472;2023-12-20T01:54:26;97909.50;;;0.12;99.36
9822;BME280;4950;46.042;14.472;2023-12-20T01:56:53;97907.91;;;0.22;99.44
9822;BME280;4950;46.042;14.472;2023-12-20T01:59:20;97901.59;;;0.15;98.54
9822;BME280;4950;46.042;14.472;2023-12-20T02:01:47;97902.09;;;0.20;99.20
9822;BME280;4950;46.042;14.472;2023-12-20T02:04:16;97891.19;;;0.18;98.49
9822;BME280;4950;46.042;14.472;2023-12-20T02:06:43;97884.34;;;0.18;98.02
9822;BME280;4950;46.042;14.472;2023-12-20T02:09:12;97886.53;;;0.12;98.35
9822;BME280;4950;46.042;14.472;2023-12-20T02:11:39;97879.66;;;0.12;98.53
9822;BME280;4950;46.042;14.472;2023-12-20T02:14:06;97876.88;;;0.15;98.94
9822;BME280;4950;46.042;14.472;2023-12-20T02:16:33;97875.81;;;0.07;98.89
9822;BME280;4950;46.042;14.472;2023-12-20T02:19:00;97873.03;;;0.10;98.65
9822;BME280;4950;46.042;14.472;2023-12-20T02:21:33;97873.09;;;0.21;99.19
9822;BME280;4950;46.042;14.472;2023-12-20T02:24:00;97870.31;;;0.24;99.03
9822;BME280;4950;46.042;14.472;2023-12-20T02:26:27;97864.06;;;0.28;99.07
9822;BME280;4950;46.042;14.472;2023-12-20T02:28:54;97870.59;;;0.32;98.83
9822;BME280;4950;46.042;14.472;2023-12-20T02:31:21;97857.47;;;0.26;98.71
9822;BME280;4950;46.042;14.472;2023-12-20T02:33:48;97866.72;;;0.27;97.86
9822;BME280;4950;46.042;14.472;2023-12-20T02:36:15;97854.91;;;0.26;98.23
9822;BME280;4950;46.042;14.472;2023-12-20T02:38:43;97861.25;;;0.20;98.82
9822;BME280;4950;46.042;14.472;2023-12-20T02:41:10;97860.31;;;0.21;98.41
9822;BME280;4950;46.042;14.472;2023-12-20T02:43:36;97853.50;;;0.22;98.76
9822;BME280;4950;46.042;14.472;2023-12-20T02:46:03;97851.66;;;0.24;98.10
9822;BME280;4950;46.042;14.472;2023-12-20T02:48:30;97852.63;;;0.34;97.79
9822;BME280;4950;46.042;14.472;2023-12-20T02:50:56;97855.28;;;0.32;97.78
9822;BME280;4950;46.042;14.472;2023-12-20T02:53:23;97851.09;;;0.31;97.97
9822;BME280;4950;46.042;14.472;2023-12-20T02:55:51;97854.16;;;0.12;98.30
9822;BME280;4950;46.042;14.472;2023-12-20T02:58:18;97851.34;;;0.04;97.45
9822;BME280;4950;46.042;14.472;2023-12-20T03:00:45;97851.91;;;-0.16;98.91
9822;BME280;4950;46.042;14.472;2023-12-20T03:03:11;97843.91;;;-0.12;99.64
9822;BME280;4950;46.042;14.472;2023-12-20T03:05:38;97842.31;;;-0.13;98.71
9822;BME280;4950;46.042;14.472;2023-12-20T03:08:05;97841.28;;;-0.10;98.80
9822;BME280;4950;46.042;14.472;2023-12-20T03:10:34;97843.00;;;-0.11;98.90
9822;BME280;4950;46.042;14.472;2023-12-20T03:13:02;97844.84;;;-0.13;98.51
9822;BME280;4950;46.042;14.472;2023-12-20T03:15:29;97839.56;;;-0.10;98.75
9822;BME280;4950;46.042;14.472;2023-12-20T03:17:56;97834.91;;;-0.05;99.93
9822;BME280;4950;46.042;14.472;2023-12-20T03:20:24;97835.16;;;-0.08;98.61
9822;BME280;4950;46.042;14.472;2023-12-20T03:22:51;97829.44;;;-0.11;98.91
9822;BME280;4950;46.042;14.472;2023-12-20T03:25:18;97834.16;;;-0.18;98.86
9822;BME280;4950;46.042;14.472;2023-12-20T03:27:44;97836.00;;;-0.20;99.18
9822;BME280;4950;46.042;14.472;2023-12-20T03:30:13;97841.81;;;-0.18;98.23
9822;BME280;4950;46.042;14.472;2023-12-20T03:32:39;97837.63;;;-0.19;99.42
9822;BME280;4950;46.042;14.472;2023-12-20T03:35:06;97836.94;;;-0.21;98.80
9822;BME280;4950;46.042;14.472;2023-12-20T03:37:33;97832.44;;;-0.17;98.76
9822;BME280;4950;46.042;14.472;2023-12-20T03:39:59;97831.41;;;-0.15;98.81
9822;BME280;4950;46.042;14.472;2023-12-20T03:42:26;97827.44;;;-0.19;99.12
9822;BME280;4950;46.042;14.472;2023-12-20T03:44:53;97832.22;;;-0.14;99.11
9822;BME280;4950;46.042;14.472;2023-12-20T03:47:21;97824.66;;;-0.16;98.80
9822;BME280;4950;46.042;14.472;2023-12-20T03:49:47;97822.00;;;-0.14;99.74
9822;BME280;4950;46.042;14.472;2023-12-20T03:52:14;97822.16;;;-0.05;99.79
9822;BME280;4950;46.042;14.472;2023-12-20T03:54:41;97824.50;;;-0.02;99.21
9822;BME280;4950;46.042;14.472;2023-12-20T03:57:08;97823.31;;;-0.09;99.19
9822;BME280;4950;46.042;14.472;2023-12-20T03:59:36;97815.66;;;-0.09;98.18
9822;BME280;4950;46.042;14.472;2023-12-20T04:02:04;97805.78;;;-0.13;98.34
9822;BME280;4950;46.042;14.472;2023-12-20T04:04:32;97806.25;;;-0.32;98.77
9822;BME280;4950;46.042;14.472;2023-12-20T04:06:58;97811.09;;;-0.41;100.00
9822;BME280;4950;46.042;14.472;2023-12-20T04:09:25;97806.63;;;-0.50;100.00
9822;BME280;4950;46.042;14.472;2023-12-20T04:11:51;97806.53;;;-0.48;100.00
9822;BME280;4950;46.042;14.472;2023-12-20T04:14:18;97799.16;;;-0.53;100.00
9822;BME280;4950;46.042;14.472;2023-12-20T04:16:45;97808.38;;;-0.50;100.00
9822;BME280;4950;46.042;14.472;2023-12-20T04:19:12;97797.13;;;-0.48;100.00
9822;BME280;4950;46.042;14.472;2023-12-20T04:21:40;97799.56;;;-0.46;100.00
9822;BME280;4950;46.042;14.472;2023-12-20T04:24:06;97797.31;;;-0.51;100.00
9822;BME280;4950;46.042;14.472;2023-12-20T04:26:33;97800.53;;;-0.60;100.00
9822;BME280;4950;46.042;14.472;2023-12-20T04:29:00;97799.50;;;-0.57;100.00
9822;BME280;4950;46.042;14.472;2023-12-20T04:31:27;97799.00;;;-0.63;100.00
9822;BME280;4950;46.042;14.472;2023-12-20T04:33:53;97792.78;;;-0.58;100.00
9822;BME280;4950;46.042;14.472;2023-12-20T04:36:20;97795.91;;;-0.55;100.00
9822;BME280;4950;46.042;14.472;2023-12-20T04:38:48;97795.38;;;-0.47;100.00
9822;BME280;4950;46.042;14.472;2023-12-20T04:41:15;97792.84;;;-0.47;100.00
9822;BME280;4950;46.042;14.472;2023-12-20T04:43:44;97791.41;;;-0.38;100.00
9822;BME280;4950;46.042;14.472;2023-12-20T04:46:10;97796.50;;;-0.38;100.00
9822;BME280;4950;46.042;14.472;2023-12-20T04:48:37;97789.84;;;-0.41;100.00
9822;BME280;4950;46.042;14.472;2023-12-20T04:51:04;97791.53;;;-0.53;99.57
9822;BME280;4950;46.042;14.472;2023-12-20T04:53:31;97786.06;;;-0.72;100.00
9822;BME280;4950;46.042;14.472;2023-12-20T04:55:59;97779.97;;;-0.83;100.00
9822;BME280;4950;46.042;14.472;2023-12-20T04:58:26;97781.41;;;-0.78;100.00
9822;BME280;4950;46.042;14.472;2023-12-20T05:00:52;97779.97;;;-0.83;100.00
9822;BME280;4950;46.042;14.472;2023-12-20T05:03:19;97773.31;;;-0.72;100.00
9822;BME280;4950;46.042;14.472;2023-12-20T05:05:46;97775.47;;;-0.66;100.00
9822;BME280;4950;46.042;14.472;2023-12-20T05:08:13;97765.69;;;-0.72;99.86
9822;BME280;4950;46.042;14.472;2023-12-20T05:10:40;97761.16;;;-0.80;100.00
9822;BME280;4950;46.042;14.472;2023-12-20T05:13:08;97756.81;;;-0.67;100.00
9822;BME280;4950;46.042;14.472;2023-12-20T05:15:36;97755.28;;;-0.69;100.00
9822;BME280;4950;46.042;14.472;2023-12-20T05:18:03;97763.03;;;-0.71;100.00
9822;BME280;4950;46.042;14.472;2023-12-20T05:20:30;97757.56;;;-0.77;99.97
9822;BME280;4950;46.042;14.472;2023-12-20T05:22:56;97747.97;;;-0.74;100.00
9822;BME280;4950;46.042;14.472;2023-12-20T05:25:23;97750.13;;;-0.81;100.00
9822;BME280;4950;46.042;14.472;2023-12-20T05:27:50;97743.84;;;-0.88;100.00
9822;BME280;4950;46.042;14.472;2023-12-20T05:30:18;97746.44;;;-0.76;100.00
9822;BME280;4950;46.042;14.472;2023-12-20T05:32:45;97745.47;;;-0.63;100.00
9822;BME280;4950;46.042;14.472;2023-12-20T05:35:12;97743.31;;;-0.56;100.00
9822;BME280;4950;46.042;14.472;2023-12-20T05:37:38;97740.81;;;-0.69;100.00
9822;BME280;4950;46.042;14.472;2023-12-20T05:40:06;97741.56;;;-0.80;100.00
9822;BME280;4950;46.042;14.472;2023-12-20T05:42:35;97734.63;;;-0.77;100.00
9822;BME280;4950;46.042;14.472;2023-12-20T05:45:01;97731.66;;;-0.84;100.00
9822;BME280;4950;46.042;14.472;2023-12-20T05:47:29;97732.78;;;-0.75;100.00
9822;BME280;4950;46.042;14.472;2023-12-20T05:49:55;97731.75;;;-0.73;100.00
9822;BME280;4950;46.042;14.472;2023-12-20T05:52:22;97730.75;;;-0.70;100.00
9822;BME280;4950;46.042;14.472;2023-12-20T05:54:48;97729.97;;;-0.60;100.00
9822;BME280;4950;46.042;14.472;2023-12-20T05:57:15;97728.72;;;-0.54;100.00
9822;BME280;4950;46.042;14.472;2023-12-20T05:59:41;97730.94;;;-0.49;100.00
9822;BME280;4950;46.042;14.472;2023-12-20T06:02:08;97738.75;;;-0.40;100.00
9822;BME280;4950;46.042;14.472;2023-12-20T06:04:35;97734.34;;;-0.49;99.99
9822;BME280;4950;46.042;14.472;2023-12-20T06:07:02;97740.78;;;-0.56;100.00
9822;BME280;4950;46.042;14.472;2023-12-20T06:09:28;97734.75;;;-0.55;100.00
9822;BME280;4950;46.042;14.472;2023-12-20T06:11:55;97738.75;;;-0.40;100.00
9822;BME280;4950;46.042;14.472;2023-12-20T06:14:21;97725.09;;;-0.38;100.00
9822;BME280;4950;46.042;14.472;2023-12-20T06:16:48;97728.66;;;-0.41;100.00
9822;BME280;4950;46.042;14.472;2023-12-20T06:19:14;97732.09;;;-0.53;100.00
9822;BME280;4950;46.042;14.472;2023-12-20T06:21:42;97732.63;;;-0.61;100.00
9822;BME280;4950;46.042;14.472;2023-12-20T06:24:08;97725.16;;;-0.51;100.00
9822;BME280;4950;46.042;14.472;2023-12-20T06:26:35;97719.97;;;-0.63;100.00
9822;BME280;4950;46.042;14.472;2023-12-20T06:29:02;97722.22;;;-0.58;100.00
9822;BME280;4950;46.042;14.472;2023-12-20T06:31:28;97723.13;;;-0.59;100.00
9822;BME280;4950;46.042;14.472;2023-12-20T06:33:54;97722.31;;;-0.60;100.00
9822;BME280;4950;46.042;14.472;2023-12-20T06:36:24;97725.69;;;-0.59;100.00
9822;BME280;4950;46.042;14.472;2023-12-20T06:38:52;97728.63;;;-0.52;100.00
9822;BME280;4950;46.042;14.472;2023-12-20T06:41:19;97721.88;;;-0.53;100.00
9822;BME280;4950;46.042;14.472;2023-12-20T06:43:45;97728.47;;;-0.62;99.59
9822;BME280;4950;46.042;14.472;2023-12-20T06:46:12;97728.13;;;-0.82;100.00
9822;BME280;4950;46.042;14.472;2023-12-20T06:48:39;97723.94;;;-0.83;100.00
9822;BME280;4950;46.042;14.472;2023-12-20T06:51:05;97731.91;;;-0.87;100.00
9822;BME280;4950;46.042;14.472;2023-12-20T06:53:33;97734.81;;;-0.81;100.00
9822;BME280;4950;46.042;14.472;2023-12-20T06:56:01;97735.53;;;-0.78;100.00
9822;BME280;4950;46.042;14.472;2023-12-20T06:58:27;97736.28;;;-0.89;100.00
9822;BME280;4950;46.042;14.472;2023-12-20T07:00:54;97730.78;;;-0.96;100.00
9822;BME280;4950;46.042;14.472;2023-12-20T07:03:20;97736.09;;;-0.99;100.00
9822;BME280;4950;46.042;14.472;2023-12-20T07:05:47;97737.00;;;-1.00;100.00
9822;BME280;4950;46.042;14.472;2023-12-20T07:08:13;97739.84;;;-0.92;100.00
9822;BME280;4950;46.042;14.472;2023-12-20T07:10:40;97732.81;;;-0.88;100.00
9822;BME280;4950;46.042;14.472;2023-12-20T07:13:08;97729.56;;;-0.90;100.00
9822;BME280;4950;46.042;14.472;2023-12-20T07:15:35;97733.22;;;-0.82;100.00
9822;BME280;4950;46.042;14.472;2023-12-20T07:18:02;97723.63;;;-0.78;100.00
9822;BME280;4950;46.042;14.472;2023-12-20T07:20:28;97721.38;;;-0.83;99.98
9822;BME280;4950;46.042;14.472;2023-12-20T07:22:55;97731.03;;;-0.75;100.00
9822;BME280;4950;46.042;14.472;2023-12-20T07:25:21;97727.59;;;-0.74;99.70
9822;BME280;4950;46.042;14.472;2023-12-20T07:27:48;97724.28;;;-0.63;99.60
9822;BME280;4950;46.042;14.472;2023-12-20T07:30:16;97723.66;;;-0.67;98.69
9822;BME280;4950;46.042;14.472;2023-12-20T07:32:42;97718.69;;;-0.68;99.23
9822;BME280;4950;46.042;14.472;2023-12-20T07:35:09;97715.81;;;-0.64;99.17
9822;BME280;4950;46.042;14.472;2023-12-20T07:37:35;97718.81;;;-0.46;99.17
9822;BME280;4950;46.042;14.472;2023-12-20T07:40:02;97715.66;;;-0.49;97.43
9822;BME280;4950;46.042;14.472;2023-12-20T07:42:28;97731.47;;;-0.57;97.45
9822;BME280;4950;46.042;14.472;2023-12-20T07:44:55;97736.28;;;-0.52;98.59
9822;BME280;4950;46.042;14.472;2023-12-20T07:47:23;97734.50;;;-0.39;98.39
9822;BME280;4950;46.042;14.472;2023-12-20T07:49:50;97726.56;;;-0.47;99.00
9822;BME280;4950;46.042;14.472;2023-12-20T07:52:17;97713.81;;;-0.47;98.95
9822;BME280;4950;46.042;14.472;2023-12-20T07:54:44;97707.00;;;-0.47;98.96
9822;BME280;4950;46.042;14.472;2023-12-20T07:57:11;97715.22;;;-0.67;98.40
9822;BME280;4950;46.042;14.472;2023-12-20T07:59:37;97723.97;;;-0.58;99.21
9822;BME280;4950;46.042;14.472;2023-12-20T08:02:04;97721.84;;;-0.41;100.00
9822;BME280;4950;46.042;14.472;2023-12-20T08:04:32;97712.50;;;-0.53;99.24
9822;BME280;4950;46.042;14.472;2023-12-20T08:06:58;97723.19;;;-0.48;99.69
9822;BME280;4950;46.042;14.472;2023-12-20T08:09:25;97721.75;;;-0.39;99.57
9822;BME280;4950;46.042;14.472;2023-12-20T08:11:51;97719.34;;;-0.29;99.93
9822;BME280;4950;46.042;14.472;2023-12-20T08:14:18;97724.72;;;-0.21;99.75
9822;BME280;4950;46.042;14.472;2023-12-20T08:16:44;97733.16;;;-0.21;100.00
9822;BME280;4950;46.042;14.472;2023-12-20T08:19:11;97733.97;;;-0.20;99.64
9822;BME280;4950;46.042;14.472;2023-12-20T08:21:39;97732.56;;;-0.24;99.86
9822;BME280;4950;46.042;14.472;2023-12-20T08:24:05;97739.50;;;-0.26;100.00
9822;BME280;4950;46.042;14.472;2023-12-20T08:26:32;97743.81;;;-0.27;99.54
9822;BME280;4950;46.042;14.472;2023-12-20T08:28:58;97747.22;;;-0.15;99.28
9822;BME280;4950;46.042;14.472;2023-12-20T08:31:25;97744.63;;;-0.26;99.86
9822;BME280;4950;46.042;14.472;2023-12-20T08:33:52;97742.50;;;-0.32;99.58
9822;BME280;4950;46.042;14.472;2023-12-20T08:36:19;97744.47;;;-0.36;100.00
9822;BME280;4950;46.042;14.472;2023-12-20T08:38:48;97741.19;;;-0.38;100.00
9822;BME280;4950;46.042;14.472;2023-12-20T08:41:15;97743.09;;;-0.29;100.00
9822;BME280;4950;46.042;14.472;2023-12-20T08:43:42;97739.19;;;-0.22;100.00
9822;BME280;4950;46.042;14.472;2023-12-20T08:46:08;97742.47;;;-0.08;100.00
9822;BME280;4950;46.042;14.472;2023-12-20T08:48:35;97747.31;;;-0.16;100.00
9822;BME280;4950;46.042;14.472;2023-12-20T08:51:02;97745.97;;;-0.33;100.00
9822;BME280;4950;46.042;14.472;2023-12-20T08:53:29;97748.91;;;-0.51;99.73
9822;BME280;4950;46.042;14.472;2023-12-20T08:55:56;97754.31;;;-0.55;100.00
9822;BME280;4950;46.042;14.472;2023-12-20T08:58:26;97753.84;;;-0.61;100.00
9822;BME280;4950;46.042;14.472;2023-12-20T09:00:52;97748.41;;;-0.56;100.00
9822;BME280;4950;46.042;14.472;2023-12-20T09:03:19;97756.34;;;-0.48;100.00
9822;BME280;4950;46.042;14.472;2023-12-20T09:05:45;97750.00;;;-0.42;100.00
9822;BME280;4950;46.042;14.472;2023-12-20T09:08:12;97752.81;;;-0.34;100.00
9822;BME280;4950;46.042;14.472;2023-12-20T09:10:38;97751.94;;;-0.22;100.00
9822;BME280;4950;46.042;14.472;2023-12-20T09:13:06;97752.44;;;-0.16;100.00
9822;BME280;4950;46.042;14.472;2023-12-20T09:15:33;97756.19;;;-0.09;100.00
9822;BME280;4950;46.042;14.472;2023-12-20T09:18:00;97748.53;;;-0.09;100.00
9822;BME280;4950;46.042;14.472;2023-12-20T09:20:27;97737.66;;;0.00;100.00
9822;BME280;4950;46.042;14.472;2023-12-20T09:22:53;97738.13;;;0.05;99.71
9822;BME280;4950;46.042;14.472;2023-12-20T09:25:20;97722.03;;;0.16;99.22
9822;BME280;4950;46.042;14.472;2023-12-20T09:27:48;97719.94;;;0.21;99.68
9822;BME280;4950;46.042;14.472;2023-12-20T09:30:15;97722.50;;;0.21;99.30
9822;BME280;4950;46.042;14.472;2023-12-20T09:32:42;97732.50;;;0.24;100.00
9822;BME280;4950;46.042;14.472;2023-12-20T09:35:08;97730.06;;;0.34;100.00
9822;BME280;4950;46.042;14.472;2023-12-20T09:37:35;97727.53;;;0.45;100.00
9822;BME280;4950;46.042;14.472;2023-12-20T09:40:01;97722.31;;;0.58;100.00
9822;BME280;4950;46.042;14.472;2023-12-20T09:42:29;97708.28;;;0.64;100.00
9822;BME280;4950;46.042;14.472;2023-12-20T09:45:03;97700.16;;;0.81;100.00
9822;BME280;4950;46.042;14.472;2023-12-20T09:47:33;97698.16;;;0.96;100.00
9822;BME280;4950;46.042;14.472;2023-12-20T09:50:00;97690.72;;;1.04;100.00
9822;BME280;4950;46.042;14.472;2023-12-20T09:52:26;97684.22;;;1.11;99.32
9822;BME280;4950;46.042;14.472;2023-12-20T09:54:52;97694.38;;;1.23;98.66
9822;BME280;4950;46.042;14.472;2023-12-20T09:57:20;97696.47;;;1.29;99.14
9822;BME280;4950;46.042;14.472;2023-12-20T09:59:46;97685.28;;;1.41;99.72
9822;BME280;4950;46.042;14.472;2023-12-20T10:02:13;97698.50;;;1.46;98.45
9822;BME280;4950;46.042;14.472;2023-12-20T10:04:42;97684.06;;;1.56;98.40
9822;BME280;4950;46.042;14.472;2023-12-20T10:07:12;97681.44;;;1.68;98.62
9822;BME280;4950;46.042;14.472;2023-12-20T10:09:39;97671.84;;;1.81;98.17
9822;BME280;4950;46.042;14.472;2023-12-20T10:12:05;97669.41;;;2.01;97.73
9822;BME280;4950;46.042;14.472;2023-12-20T10:14:32;97670.66;;;2.27;97.97
9822;BME280;4950;46.042;14.472;2023-12-20T10:17:01;97675.06;;;2.46;98.20
9822;BME280;4950;46.042;14.472;2023-12-20T10:19:28;97671.50;;;2.68;97.47
9822;BME280;4950;46.042;14.472;2023-12-20T10:21:56;97669.16;;;2.96;98.04
9822;BME280;4950;46.042;14.472;2023-12-20T10:24:22;97667.31;;;3.17;95.90
9822;BME280;4950;46.042;14.472;2023-12-20T10:26:51;97658.28;;;3.33;94.96
9822;BME280;4950;46.042;14.472;2023-12-20T10:29:27;97656.53;;;3.63;93.76
9822;BME280;4950;46.042;14.472;2023-12-20T10:31:53;97658.56;;;3.79;92.50
9822;BME280;4950;46.042;14.472;2023-12-20T10:34:22;97653.56;;;3.87;91.95
9822;BME280;4950;46.042;14.472;2023-12-20T10:36:49;97654.47;;;3.95;92.02
9822;BME280;4950;46.042;14.472;2023-12-20T10:39:17;97640.28;;;4.01;91.18
9822;BME280;4950;46.042;14.472;2023-12-20T10:41:45;97652.69;;;4.15;90.96
9822;BME280;4950;46.042;14.472;2023-12-20T10:44:12;97636.44;;;4.25;90.68
9822;BME280;4950;46.042;14.472;2023-12-20T10:46:39;97646.13;;;4.41;89.46
9822;BME280;4950;46.042;14.472;2023-12-20T10:49:12;97645.81;;;4.53;89.61
9822;BME280;4950;46.042;14.472;2023-12-20T10:51:40;97636.41;;;4.62;88.92
9822;BME280;4950;46.042;14.472;2023-12-20T10:54:07;97636.09;;;4.75;88.89
9822;BME280;4950;46.042;14.472;2023-12-20T10:56:35;97633.41;;;4.77;87.75
9822;BME280;4950;46.042;14.472;2023-12-20T10:59:03;97632.16;;;4.81;87.43
9822;BME280;4950;46.042;14.472;2023-12-20T11:01:30;97630.38;;;4.81;86.95
9822;BME280;4950;46.042;14.472;2023-12-20T11:03:57;97617.97;;;4.77;86.32
9822;BME280;4950;46.042;14.472;2023-12-20T11:06:30;97628.09;;;4.78;85.43
9822;BME280;4950;46.042;14.472;2023-12-20T11:09:01;97632.13;;;4.53;85.39
9822;BME280;4950;46.042;14.472;2023-12-20T11:11:39;97627.97;;;4.14;86.48
9822;BME280;4950;46.042;14.472;2023-12-20T11:14:11;97639.78;;;3.78;88.52
9822;BME280;4950;46.042;14.472;2023-12-20T11:16:42;97642.91;;;3.62;90.30
9822;BME280;4950;46.042;14.472;2023-12-20T11:19:08;97634.41;;;3.62;89.70
9822;BME280;4950;46.042;14.472;2023-12-20T11:21:36;97639.53;;;3.52;90.64
9822;BME280;4950;46.042;14.472;2023-12-20T11:24:02;97639.38;;;3.53;90.58
9822;BME280;4950;46.042;14.472;2023-12-20T11:26:30;97633.84;;;3.29;90.52
9822;BME280;4950;46.042;14.472;2023-12-20T11:29:03;97631.97;;;3.31;91.56
9822;BME280;4950;46.042;14.472;2023-12-20T11:31:50;97624.69;;;3.36;90.52
9822;BME280;4950;46.042;14.472;2023-12-20T11:34:17;97617.78;;;3.17;90.11
9822;BME280;4950;46.042;14.472;2023-12-20T11:36:44;97614.81;;;3.22;91.02
9822;BME280;4950;46.042;14.472;2023-12-20T11:39:10;97607.78;;;3.24;91.97
9822;BME280;4950;46.042;14.472;2023-12-20T11:41:38;97604.56;;;3.22;92.63
9822;BME280;4950;46.042;14.472;2023-12-20T11:44:06;97609.44;;;3.34;92.01
9822;BME280;4950;46.042;14.472;2023-12-20T11:46:33;97598.75;;;3.20;90.71
9822;BME280;4950;46.042;14.472;2023-12-20T11:49:00;97603.06;;;3.19;91.44
9822;BME280;4950;46.042;14.472;2023-12-20T11:51:27;97596.97;;;3.30;91.98
9822;BME280;4950;46.042;14.472;2023-12-20T11:53:53;97598.19;;;3.35;91.82
9822;BME280;4950;46.042;14.472;2023-12-20T11:56:20;97601.31;;;3.49;90.83
9822;BME280;4950;46.042;14.472;2023-12-20T11:58:46;97588.03;;;3.63;90.79
9822;BME280;4950;46.042;14.472;2023-12-20T12:01:15;97581.16;;;3.73;90.69
9822;BME280;4950;46.042;14.472;2023-12-20T12:03:41;97575.56;;;3.88;90.31
9822;BME280;4950;46.042;14.472;2023-12-20T12:06:09;97585.81;;;3.98;90.14
9822;BME280;4950;46.042;14.472;2023-12-20T12:08:35;97594.31;;;4.08;90.18
9822;BME280;4950;46.042;14.472;2023-12-20T12:11:02;97593.91;;;4.12;90.27
9822;BME280;4950;46.042;14.472;2023-12-20T12:13:29;97585.84;;;4.25;90.06
9822;BME280;4950;46.042;14.472;2023-12-20T12:15:55;97587.59;;;4.34;89.46
9822;BME280;4950;46.042;14.472;2023-12-20T12:18:24;97577.25;;;4.44;89.70
9822;BME280;4950;46.042;14.472;2023-12-20T12:20:59;97584.03;;;4.45;89.57
9822;BME280;4950;46.042;14.472;2023-12-20T12:23:26;97583.19;;;4.45;89.55
9822;BME280;4950;46.042;14.472;2023-12-20T12:25:52;97572.50;;;4.49;89.84
9822;BME280;4950;46.042;14.472;2023-12-20T12:28:20;97563.13;;;4.58;89.65
9822;BME280;4950;46.042;14.472;2023-12-20T12:30:55;97570.38;;;4.63;89.67
9822;BME280;4950;46.042;14.472;2023-12-20T12:33:23;97575.13;;;4.67;89.57
9822;BME280;4950;46.042;14.472;2023-12-20T12:35:50;97564.13;;;4.75;90.03
9822;BME280;4950;46.042;14.472;2023-12-20T12:38:19;97559.31;;;4.80;89.65
9822;BME280;4950;46.042;14.472;2023-12-20T12:40:46;97556.09;;;4.78;90.22
9822;BME280;4950;46.042;14.472;2023-12-20T12:43:12;97551.91;;;4.77;90.41
9822;BME280;4950;46.042;14.472;2023-12-20T12:45:39;97554.19;;;4.80;90.70
9822;BME280;4950;46.042;14.472;2023-12-20T12:48:06;97550.22;;;4.86;90.71
9822;BME280;4950;46.042;14.472;2023-12-20T12:50:34;97546.72;;;4.87;90.49
9822;BME280;4950;46.042;14.472;2023-12-20T12:53:00;97543.22;;;4.78;90.89
9822;BME280;4950;46.042;14.472;2023-12-20T12:55:27;97539.13;;;4.85;91.15
9822;BME280;4950;46.042;14.472;2023-12-20T12:57:54;97542.09;;;4.90;90.87
9822;BME280;4950;46.042;14.472;2023-12-20T13:00:20;97534.56;;;4.97;90.35
9822;BME280;4950;46.042;14.472;2023-12-20T13:02:47;97532.00;;;4.97;90.32
9822;BME280;4950;46.042;14.472;2023-12-20T13:05:14;97528.41;;;5.08;90.20
9822;BME280;4950;46.042;14.472;2023-12-20T13:07:42;97530.53;;;5.12;89.59
9822;BME280;4950;46.042;14.472;2023-12-20T13:10:10;97533.03;;;5.04;89.78
9822;BME280;4950;46.042;14.472;2023-12-20T13:12:36;97531.66;;;5.10;90.16